createdAt,value
2022-10-06T00:00:01.484Z,3.40
2022-10-06T00:02:28.370Z,2.78
2022-10-06T00:04:54.921Z,3.08
2022-10-06T00:07:21.354Z,2.67
2022-10-06T00:09:47.843Z,3.40
2022-10-06T00:12:15.770Z,3.03
2022-10-06T00:14:42.239Z,3.30
2022-10-06T00:17:08.799Z,3.38
2022-10-06T00:19:35.300Z,3.38
2022-10-06T00:22:01.794Z,2.90
2022-10-06T00:24:28.226Z,3.33
2022-10-06T00:26:54.693Z,3.05
2022-10-06T00:29:22.473Z,2.90
2022-10-06T00:31:48.920Z,2.85
2022-10-06T00:34:15.377Z,3.20
2022-10-06T00:36:41.832Z,3.00
2022-10-06T00:39:08.267Z,2.60
2022-10-06T00:41:34.933Z,3.20
2022-10-06T00:44:01.512Z,3.20
2022-10-06T00:46:34.639Z,2.63
2022-10-06T00:49:08.083Z,2.80
2022-10-06T00:51:38.558Z,3.00
2022-10-06T00:54:05.939Z,3.42
2022-10-06T00:56:32.484Z,2.83
2022-10-06T00:58:58.961Z,2.80
2022-10-06T01:01:25.954Z,3.00
2022-10-06T01:03:59.887Z,2.97
2022-10-06T01:06:26.320Z,2.90
2022-10-06T01:08:53.335Z,3.60
2022-10-06T01:11:19.888Z,2.70
2022-10-06T01:13:47.657Z,3.00
2022-10-06T01:16:18.701Z,2.90
2022-10-06T01:18:46.861Z,3.30
2022-10-06T01:21:20.236Z,2.72
2022-10-06T01:23:48.577Z,2.72
2022-10-06T01:26:17.807Z,2.72
2022-10-06T01:28:45.309Z,2.75
2022-10-06T01:31:12.002Z,2.90
2022-10-06T01:33:38.457Z,2.83
2022-10-06T01:36:05.267Z,3.30
2022-10-06T01:38:32.201Z,3.35
2022-10-06T01:41:00.438Z,3.03
2022-10-06T01:43:26.892Z,2.60
2022-10-06T01:45:54.671Z,2.70
2022-10-06T01:48:21.663Z,2.53
2022-10-06T01:50:48.137Z,2.88
2022-10-06T01:53:14.774Z,2.95
2022-10-06T01:55:41.210Z,2.50
2022-10-06T01:58:09.176Z,3.10
2022-10-06T02:00:35.637Z,2.90
2022-10-06T02:03:02.072Z,3.30
2022-10-06T02:05:31.504Z,3.15
2022-10-06T02:07:57.957Z,3.15
2022-10-06T02:10:24.468Z,3.53
2022-10-06T02:12:51.644Z,2.67
2022-10-06T02:15:20.049Z,2.78
2022-10-06T02:17:46.672Z,2.88
2022-10-06T02:20:13.588Z,3.20
2022-10-06T02:22:40.805Z,3.00
2022-10-06T02:25:08.080Z,2.63
2022-10-06T02:27:34.618Z,3.50
2022-10-06T02:30:01.056Z,2.97
2022-10-06T02:32:34.132Z,3.30
2022-10-06T02:35:00.829Z,3.03
2022-10-06T02:37:27.327Z,3.45
2022-10-06T02:39:53.798Z,2.97
2022-10-06T02:42:20.218Z,3.17
2022-10-06T02:44:46.631Z,3.00
2022-10-06T02:47:13.064Z,3.00
2022-10-06T02:49:40.854Z,3.20
2022-10-06T02:52:07.351Z,3.38
2022-10-06T02:54:33.868Z,3.50
2022-10-06T02:57:00.326Z,3.47
2022-10-06T02:59:26.762Z,3.50
2022-10-06T03:01:53.359Z,2.97
2022-10-06T03:04:19.891Z,2.92
2022-10-06T03:06:49.030Z,3.30
2022-10-06T03:09:15.543Z,3.08
2022-10-06T03:11:42.742Z,3.55
2022-10-06T03:14:09.389Z,3.03
2022-10-06T03:16:37.577Z,3.40
2022-10-06T03:19:04.939Z,3.38
2022-10-06T03:21:33.603Z,3.25
2022-10-06T03:24:01.902Z,3.00
2022-10-06T03:26:30.793Z,3.38
2022-10-06T03:28:57.593Z,3.08
2022-10-06T03:31:24.826Z,3.40
2022-10-06T03:33:51.625Z,3.42
2022-10-06T03:36:20.123Z,3.50
2022-10-06T03:38:46.969Z,3.20
2022-10-06T03:41:16.582Z,3.55
2022-10-06T03:43:45.200Z,3.20
2022-10-06T03:46:13.904Z,3.05
2022-10-06T03:48:40.426Z,2.78
2022-10-06T03:51:10.812Z,2.70
2022-10-06T03:53:37.397Z,2.78
2022-10-06T03:56:06.803Z,1.98
2022-10-06T03:58:36.775Z,1.95
2022-10-06T04:01:05.089Z,1.92
2022-10-06T04:03:31.994Z,1.70
2022-10-06T04:06:00.181Z,1.30
2022-10-06T04:08:28.037Z,2.28
2022-10-06T04:10:54.984Z,1.20
2022-10-06T04:13:22.547Z,1.33
2022-10-06T04:15:50.301Z,1.23
2022-10-06T04:18:16.760Z,1.05
2022-10-06T04:20:43.200Z,0.82
2022-10-06T04:23:09.907Z,0.80
2022-10-06T04:25:36.315Z,0.90
2022-10-06T04:28:02.862Z,0.70
2022-10-06T04:30:29.424Z,0.60
2022-10-06T04:32:57.186Z,0.60
2022-10-06T04:35:23.724Z,0.57
2022-10-06T04:37:50.226Z,0.60
2022-10-06T04:40:16.908Z,0.50
2022-10-06T04:42:43.362Z,0.70
2022-10-06T04:45:10.693Z,0.45
2022-10-06T04:47:37.124Z,0.88
2022-10-06T04:50:05.816Z,0.57
2022-10-06T04:52:32.338Z,0.50
2022-10-06T04:54:58.807Z,0.70
2022-10-06T04:57:25.245Z,0.38
2022-10-06T04:59:51.629Z,0.43
2022-10-06T05:02:18.131Z,0.32
2022-10-06T05:04:44.968Z,0.40
2022-10-06T05:07:12.777Z,0.30
2022-10-06T05:09:39.186Z,0.40
2022-10-06T05:12:05.720Z,0.38
2022-10-06T05:14:32.128Z,1.33
2022-10-06T05:16:58.685Z,0.50
2022-10-06T05:19:25.172Z,0.52
2022-10-06T05:21:51.674Z,0.30
2022-10-06T05:24:19.475Z,0.60
2022-10-06T05:26:45.921Z,0.32
2022-10-06T05:29:12.372Z,0.52
2022-10-06T05:31:38.993Z,0.30
2022-10-06T05:34:06.016Z,0.22
2022-10-06T05:36:33.440Z,0.40
2022-10-06T05:39:00.430Z,0.30
2022-10-06T05:41:30.440Z,0.38
2022-10-06T05:43:57.675Z,0.95
2022-10-06T05:46:26.106Z,0.30
2022-10-06T05:48:54.624Z,0.30
2022-10-06T05:51:25.577Z,0.30
2022-10-06T05:53:54.624Z,0.30
2022-10-06T05:56:22.711Z,0.40
2022-10-06T05:58:52.796Z,0.70
2022-10-06T06:01:23.587Z,0.30
2022-10-06T06:03:51.648Z,0.45
2022-10-06T06:06:20.115Z,0.82
2022-10-06T06:08:47.499Z,0.47
2022-10-06T06:11:14.317Z,0.40
2022-10-06T06:13:40.794Z,0.35
2022-10-06T06:16:13.984Z,0.30
2022-10-06T06:18:40.770Z,0.70
2022-10-06T06:21:08.993Z,0.47
2022-10-06T06:23:37.109Z,0.50
2022-10-06T06:26:06.064Z,0.50
2022-10-06T06:28:34.315Z,0.90
2022-10-06T06:31:05.772Z,0.55
2022-10-06T06:33:34.233Z,0.30
2022-10-06T06:36:00.679Z,0.80
2022-10-06T06:38:27.580Z,0.57
2022-10-06T06:40:54.627Z,0.70
2022-10-06T06:43:21.057Z,0.70
2022-10-06T06:45:47.488Z,0.60
2022-10-06T06:48:14.791Z,0.50
2022-10-06T06:50:43.271Z,0.60
2022-10-06T06:53:14.020Z,0.45
2022-10-06T06:55:48.048Z,1.17
2022-10-06T06:58:14.519Z,0.60
2022-10-06T07:00:40.977Z,0.80
2022-10-06T07:03:12.500Z,0.80
2022-10-06T07:05:38.976Z,0.50
2022-10-06T07:08:07.848Z,0.50
2022-10-06T07:10:34.311Z,1.02
2022-10-06T07:13:00.733Z,0.70
2022-10-06T07:15:27.180Z,0.90
2022-10-06T07:21:15.781Z,1.40
2022-10-06T07:23:44.320Z,1.20
2022-10-06T07:26:10.816Z,0.65
2022-10-06T07:28:37.312Z,0.60
2022-10-06T07:31:03.869Z,0.73
2022-10-06T07:33:30.406Z,0.98
2022-10-06T07:35:56.841Z,1.00
2022-10-06T07:38:23.396Z,0.90
2022-10-06T07:41:17.718Z,1.10
2022-10-06T07:43:41.204Z,0.88
2022-10-06T07:46:09.813Z,1.20
2022-10-06T07:48:36.475Z,1.45
2022-10-06T07:51:02.942Z,1.02
2022-10-06T07:53:29.456Z,0.80
2022-10-06T07:56:04.236Z,1.00
2022-10-06T07:58:30.901Z,1.42
2022-10-06T08:01:05.108Z,1.40
2022-10-06T08:03:31.634Z,1.00
2022-10-06T08:06:00.623Z,0.98
2022-10-06T08:08:29.469Z,0.90
2022-10-06T08:11:01.493Z,0.90
2022-10-06T08:13:28.295Z,1.27
2022-10-06T08:15:54.884Z,1.30
2022-10-06T08:18:44.591Z,1.83
2022-10-06T08:21:09.612Z,1.73
2022-10-06T08:23:36.140Z,0.93
2022-10-06T08:26:04.010Z,1.25
2022-10-06T08:28:30.499Z,1.63
2022-10-06T08:30:57.509Z,1.30
2022-10-06T08:33:23.990Z,0.80
2022-10-06T08:35:50.435Z,1.58
2022-10-06T08:38:16.975Z,1.35
2022-10-06T08:40:46.385Z,1.75
2022-10-06T08:43:18.771Z,1.25
2022-10-06T08:45:47.416Z,1.60
2022-10-06T08:48:18.383Z,1.13
2022-10-06T08:50:53.211Z,1.00
2022-10-06T08:53:29.253Z,1.27
2022-10-06T08:56:03.640Z,1.92
2022-10-06T08:58:39.865Z,1.23
2022-10-06T09:01:14.700Z,1.30
2022-10-06T09:03:44.433Z,2.08
2022-10-06T09:06:16.600Z,1.15
2022-10-06T09:08:49.753Z,1.17
2022-10-06T09:11:41.778Z,1.65
2022-10-06T09:14:16.462Z,1.50
2022-10-06T09:16:48.157Z,1.20
2022-10-06T09:19:19.237Z,1.77
2022-10-06T09:21:49.886Z,1.25
2022-10-06T09:24:18.471Z,1.33
2022-10-06T09:26:48.354Z,1.33
2022-10-06T09:29:17.016Z,1.45
2022-10-06T09:31:45.380Z,1.20
2022-10-06T09:34:20.550Z,1.10
2022-10-06T09:37:01.253Z,1.33
2022-10-06T09:39:31.071Z,1.23
2022-10-06T09:42:01.569Z,1.15
2022-10-06T09:44:31.335Z,1.90
2022-10-06T09:46:57.825Z,1.40
2022-10-06T09:49:25.500Z,1.27
2022-10-06T09:51:59.676Z,1.30
2022-10-06T09:54:26.937Z,1.10
2022-10-06T09:56:53.679Z,1.08
2022-10-06T09:59:22.565Z,1.35
2022-10-06T10:01:54.394Z,1.35
2022-10-06T10:04:25.085Z,0.90
2022-10-06T10:06:51.615Z,0.88
2022-10-06T10:09:26.561Z,1.13
2022-10-06T10:12:02.210Z,1.13
2022-10-06T10:14:36.462Z,0.95
2022-10-06T10:17:12.638Z,1.20
2022-10-06T10:19:39.366Z,1.10
2022-10-06T10:22:05.841Z,1.13
2022-10-06T10:24:51.364Z,1.10
2022-10-06T10:27:21.779Z,1.42
2022-10-06T10:30:01.654Z,1.00
2022-10-06T10:32:52.436Z,1.20
2022-10-06T10:35:26.045Z,1.35
2022-10-06T10:37:59.905Z,1.27
2022-10-06T10:40:37.214Z,1.13
2022-10-06T10:43:22.825Z,1.20
2022-10-06T10:45:55.731Z,1.77
2022-10-06T10:48:29.602Z,1.27
2022-10-06T10:51:03.374Z,1.35
2022-10-06T10:53:38.851Z,1.15
2022-10-06T10:56:11.294Z,1.17
2022-10-06T10:58:41.391Z,1.30
2022-10-06T11:01:18.312Z,1.30
2022-10-06T11:03:48.771Z,1.20
2022-10-06T11:06:35.122Z,0.85
2022-10-06T11:09:06.029Z,1.08
2022-10-06T11:11:49.880Z,0.95
2022-10-06T11:14:31.138Z,1.38
2022-10-06T11:17:03.985Z,1.30
2022-10-06T11:19:44.047Z,1.55
2022-10-06T11:22:17.684Z,1.25
2022-10-06T11:24:53.983Z,1.15
2022-10-06T11:27:33.745Z,1.17
2022-10-06T11:30:05.709Z,1.23
2022-10-06T11:32:44.631Z,0.93
2022-10-06T11:35:19.817Z,1.50
2022-10-06T11:37:51.224Z,1.48
2022-10-06T11:40:38.436Z,1.35
2022-10-06T11:43:11.969Z,1.25
2022-10-06T11:45:46.958Z,1.20
2022-10-06T11:48:24.270Z,1.23
2022-10-06T11:50:52.271Z,1.63
2022-10-06T11:53:38.218Z,1.45
2022-10-06T11:56:23.428Z,1.10
2022-10-06T11:59:24.475Z,1.13
2022-10-06T12:01:53.086Z,1.20
2022-10-06T12:04:24.285Z,1.42
2022-10-06T12:07:00.241Z,1.48
2022-10-06T12:09:31.901Z,1.55
2022-10-06T12:11:59.833Z,1.20
2022-10-06T12:17:30.986Z,1.30
2022-10-06T12:20:08.497Z,1.20
2022-10-06T12:22:43.889Z,1.20
2022-10-06T12:25:18.534Z,1.15
2022-10-06T12:28:01.065Z,1.00
2022-10-06T12:30:33.588Z,1.55
2022-10-06T12:33:00.868Z,1.80
2022-10-06T12:35:30.463Z,1.40
2022-10-06T12:37:58.500Z,0.85
2022-10-06T12:40:54.225Z,1.52
2022-10-06T12:43:53.133Z,1.23
2022-10-06T12:46:29.009Z,1.33
2022-10-06T12:49:04.345Z,1.23
2022-10-06T12:54:14.917Z,1.20
2022-10-06T12:56:43.065Z,0.90
2022-10-06T12:59:22.845Z,1.15
2022-10-06T13:01:51.854Z,1.20
2022-10-06T13:04:33.214Z,1.55
2022-10-06T13:06:59.946Z,1.10
2022-10-06T13:09:27.889Z,1.02
2022-10-06T13:11:54.431Z,1.60
2022-10-06T13:14:20.835Z,1.17
2022-10-06T13:16:48.510Z,0.85
2022-10-06T13:19:18.168Z,1.25
2022-10-06T13:21:45.481Z,1.00
2022-10-06T13:24:14.310Z,1.33
2022-10-06T13:26:42.273Z,0.90
2022-10-06T13:29:20.469Z,1.15
2022-10-06T13:31:51.938Z,0.98
2022-10-06T13:34:25.451Z,1.30
2022-10-06T13:36:52.574Z,1.13
2022-10-06T13:39:20.900Z,1.10
2022-10-06T13:41:52.156Z,1.17
2022-10-06T13:44:33.244Z,1.17
2022-10-06T13:47:02.428Z,1.30
2022-10-06T13:49:32.883Z,1.10
2022-10-06T13:52:02.743Z,1.00
2022-10-06T13:54:38.615Z,1.42
2022-10-06T13:57:38.675Z,0.90
2022-10-06T14:00:15.413Z,0.90
2022-10-06T14:02:43.178Z,0.70
2022-10-06T14:05:26.668Z,1.33
2022-10-06T14:07:56.474Z,1.25
2022-10-06T14:12:54.107Z,1.02
2022-10-06T14:15:24.389Z,1.13
2022-10-06T14:17:56.238Z,0.93
2022-10-06T14:20:44.465Z,1.00
2022-10-06T14:23:34.041Z,0.98
2022-10-06T14:26:00.974Z,1.50
2022-10-06T14:28:29.021Z,1.25
2022-10-06T14:30:55.562Z,1.40
2022-10-06T14:33:22.068Z,0.85
2022-10-06T14:35:48.738Z,0.70
2022-10-06T14:38:15.185Z,0.77
2022-10-06T14:40:42.309Z,1.02
2022-10-06T14:43:09.003Z,1.10
2022-10-06T14:45:40.407Z,1.20
2022-10-06T14:48:06.953Z,1.30
2022-10-06T14:50:34.014Z,1.27
2022-10-06T14:53:00.829Z,1.30
2022-10-06T14:55:28.281Z,1.38
2022-10-06T14:57:55.153Z,1.50
2022-10-06T15:00:21.960Z,1.20
2022-10-06T15:02:49.867Z,1.55
2022-10-06T15:05:16.434Z,1.55
2022-10-06T15:07:42.981Z,1.23
2022-10-06T15:10:09.422Z,1.08
2022-10-06T15:12:35.995Z,1.10
2022-10-06T15:15:02.448Z,1.00
2022-10-06T15:17:28.872Z,1.30
2022-10-06T15:19:56.614Z,0.70
2022-10-06T15:22:23.068Z,1.25
2022-10-06T15:24:49.934Z,1.40
2022-10-06T15:27:17.678Z,1.10
2022-10-06T15:29:46.622Z,1.23
2022-10-06T15:32:13.112Z,1.58
2022-10-06T15:34:39.524Z,1.65
2022-10-06T15:37:07.548Z,0.98
2022-10-06T15:39:36.198Z,1.30
2022-10-06T15:42:02.928Z,1.00
2022-10-06T15:44:31.869Z,1.17
2022-10-06T15:46:58.586Z,1.27
2022-10-06T15:49:26.418Z,1.67
2022-10-06T15:51:54.698Z,1.10
2022-10-06T15:54:23.935Z,1.27
2022-10-06T15:56:52.888Z,0.90
2022-10-06T15:59:20.269Z,1.02
2022-10-06T16:01:46.892Z,1.60
2022-10-06T16:04:16.893Z,1.30
2022-10-06T16:06:43.292Z,1.50
2022-10-06T16:09:11.897Z,1.17
2022-10-06T16:11:39.811Z,1.95
2022-10-06T16:14:06.476Z,1.60
2022-10-06T16:16:33.035Z,1.00
2022-10-06T16:18:59.729Z,1.27
2022-10-06T16:21:26.124Z,1.00
2022-10-06T16:23:52.837Z,1.92
2022-10-06T16:26:19.355Z,1.40
2022-10-06T16:28:47.207Z,1.17
2022-10-06T16:31:13.763Z,1.65
2022-10-06T16:33:40.730Z,1.40
2022-10-06T16:36:10.076Z,1.50
2022-10-06T16:38:36.564Z,1.65
2022-10-06T16:41:03.398Z,1.63
2022-10-06T16:43:31.561Z,1.20
2022-10-06T16:46:02.381Z,1.27
2022-10-06T16:48:29.921Z,1.42
2022-10-06T16:51:04.904Z,1.27
2022-10-06T16:53:36.031Z,1.58
2022-10-06T16:56:02.929Z,1.80
2022-10-06T16:58:35.324Z,1.27
2022-10-06T17:01:04.396Z,1.20
2022-10-06T17:03:33.681Z,1.23
2022-10-06T17:06:05.248Z,1.35
2022-10-06T17:08:32.030Z,1.70
2022-10-06T17:11:00.164Z,1.65
2022-10-06T17:13:26.704Z,1.40
2022-10-06T17:15:58.042Z,1.98
2022-10-06T17:18:25.866Z,1.40
2022-10-06T17:20:56.889Z,1.88
2022-10-06T17:23:23.501Z,1.98
2022-10-06T17:26:03.599Z,2.33
2022-10-06T17:28:30.450Z,1.70
2022-10-06T17:30:57.369Z,1.55
2022-10-06T17:33:23.802Z,1.80
2022-10-06T17:35:51.550Z,1.60
2022-10-06T17:38:18.007Z,1.40
2022-10-06T17:40:44.749Z,1.98
2022-10-06T17:43:11.160Z,1.50
2022-10-06T17:45:38.054Z,1.80
2022-10-06T17:48:04.900Z,1.98
2022-10-06T17:50:31.364Z,1.50
2022-10-06T17:52:59.262Z,2.75
2022-10-06T17:55:25.743Z,1.65
2022-10-06T17:57:52.247Z,1.73
2022-10-06T18:00:18.910Z,1.70
2022-10-06T18:02:45.632Z,1.70
2022-10-06T18:05:12.207Z,2.22
2022-10-06T18:07:38.660Z,1.67
2022-10-06T18:10:07.375Z,1.55
2022-10-06T18:12:33.816Z,1.73
2022-10-06T18:15:00.292Z,1.70
2022-10-06T18:17:26.829Z,2.03
2022-10-06T18:19:53.323Z,1.50
2022-10-06T18:22:19.883Z,1.50
2022-10-06T18:24:47.143Z,1.88
2022-10-06T18:27:14.949Z,1.77
2022-10-06T18:29:41.372Z,2.03
2022-10-06T18:37:41.328Z,1.08
2022-10-06T18:40:09.296Z,1.27
2022-10-06T18:42:37.487Z,1.83
2022-10-06T18:45:04.642Z,2.85
2022-10-06T18:47:31.064Z,2.70
2022-10-06T18:49:57.506Z,3.92
2022-10-06T18:52:24.076Z,4.13
2022-10-06T18:54:50.517Z,3.60
2022-10-06T18:57:17.037Z,2.83
2022-10-06T18:59:44.812Z,3.15
2022-10-06T19:02:11.375Z,2.10
2022-10-06T19:04:37.934Z,2.80
2022-10-06T19:07:04.845Z,2.47
2022-10-06T19:09:31.294Z,2.03
2022-10-06T19:11:57.788Z,2.67
2022-10-06T19:14:25.689Z,2.88
2022-10-06T19:16:55.040Z,1.80
2022-10-06T19:19:22.306Z,2.20
2022-10-06T19:21:50.694Z,2.10
2022-10-06T19:24:19.594Z,1.90
2022-10-06T19:26:47.752Z,2.20
2022-10-06T19:29:14.824Z,2.30
2022-10-06T19:31:43.555Z,2.30
2022-10-06T19:34:13.948Z,1.70
2022-10-06T19:36:41.423Z,2.13
2022-10-06T19:39:10.669Z,1.60
2022-10-06T19:41:37.372Z,1.65
2022-10-06T19:44:04.301Z,1.70
2022-10-06T19:46:30.774Z,1.80
2022-10-06T19:48:57.856Z,2.10
2022-10-06T19:51:25.636Z,1.40
2022-10-06T19:53:52.062Z,1.80
2022-10-06T19:56:20.452Z,1.58
2022-10-06T19:58:46.983Z,1.80
2022-10-06T20:01:13.440Z,2.03
2022-10-06T20:03:40.332Z,2.17
2022-10-06T20:06:09.002Z,1.58
2022-10-06T20:08:37.796Z,1.48
2022-10-06T20:11:06.367Z,1.50
2022-10-06T20:13:33.929Z,1.88
2022-10-06T20:16:01.183Z,1.52
2022-10-06T20:18:27.759Z,2.10
2022-10-06T20:20:57.284Z,1.73
2022-10-06T20:23:23.737Z,1.65
2022-10-06T20:25:51.542Z,1.48
2022-10-06T20:28:18.644Z,1.70
2022-10-06T20:30:45.203Z,2.40
2022-10-06T20:33:11.635Z,1.77
2022-10-06T20:35:38.082Z,1.77
2022-10-06T20:38:04.515Z,2.25
2022-10-06T20:40:30.969Z,2.05
2022-10-06T20:42:59.700Z,2.22
2022-10-06T20:45:26.131Z,1.80
2022-10-06T20:47:52.555Z,2.15
2022-10-06T20:50:19.026Z,1.95
2022-10-06T20:52:45.458Z,3.58
2022-10-06T20:55:11.874Z,4.20
2022-10-06T20:57:38.309Z,4.05
2022-10-06T21:00:07.660Z,3.90
2022-10-06T21:02:34.242Z,3.40
2022-10-06T21:05:00.694Z,3.20
2022-10-06T21:07:27.181Z,3.95
2022-10-06T21:09:53.670Z,3.45
2022-10-06T21:12:20.177Z,4.72
2022-10-06T21:14:46.609Z,3.45
2022-10-06T21:17:14.413Z,3.20
2022-10-06T21:19:40.842Z,3.55
2022-10-06T21:22:07.441Z,3.55
2022-10-06T21:24:33.978Z,3.25
2022-10-06T21:27:00.440Z,2.95
2022-10-06T21:29:26.929Z,3.10
2022-10-06T21:31:53.466Z,3.13
2022-10-06T21:34:21.268Z,3.25
2022-10-06T21:36:47.724Z,3.03
2022-10-06T21:39:14.161Z,3.25
2022-10-06T21:41:41.048Z,3.42
2022-10-06T21:44:09.672Z,2.97
2022-10-06T21:46:38.019Z,3.13
2022-10-06T21:49:06.648Z,3.55
2022-10-06T21:51:34.561Z,3.28
2022-10-06T21:54:01.650Z,2.45
2022-10-06T21:56:30.394Z,2.88
2022-10-06T21:58:57.836Z,3.03
2022-10-06T22:01:27.649Z,3.00
2022-10-06T22:03:55.506Z,2.90
2022-10-06T22:06:21.961Z,3.25
2022-10-06T22:08:50.712Z,3.10
2022-10-06T22:11:18.925Z,4.15
2022-10-06T22:13:47.347Z,2.40
2022-10-06T22:16:15.501Z,2.78
2022-10-06T22:18:42.659Z,2.53
2022-10-06T22:21:14.193Z,2.40
2022-10-06T22:23:41.081Z,2.60
2022-10-06T22:26:10.477Z,1.90
2022-10-06T22:28:37.291Z,2.80
2022-10-06T22:31:06.180Z,2.65
2022-10-06T22:33:33.560Z,2.60
2022-10-06T22:36:00.385Z,2.63
2022-10-06T22:38:27.178Z,2.55
2022-10-06T22:40:58.295Z,2.30
2022-10-06T22:43:26.453Z,2.95
2022-10-06T22:45:52.930Z,2.50
2022-10-06T22:48:19.408Z,3.15
2022-10-06T22:50:46.699Z,3.15
2022-10-06T22:53:14.469Z,2.70
2022-10-06T22:55:40.925Z,2.95
2022-10-06T22:58:07.499Z,2.90
2022-10-06T23:00:36.461Z,2.88
2022-10-06T23:03:03.060Z,3.05
2022-10-06T23:05:29.648Z,2.88
2022-10-06T23:07:56.257Z,2.90
2022-10-06T23:10:22.790Z,2.60
2022-10-06T23:12:53.540Z,2.97
2022-10-06T23:15:20.450Z,2.30
2022-10-06T23:17:48.238Z,3.42
2022-10-06T23:20:15.221Z,2.60
2022-10-06T23:22:41.710Z,2.70
2022-10-06T23:25:09.081Z,2.58
2022-10-06T23:27:35.606Z,2.53
2022-10-06T23:30:03.008Z,2.40
2022-10-06T23:32:29.520Z,2.80
2022-10-06T23:34:57.368Z,2.90
2022-10-06T23:37:23.897Z,2.60
2022-10-06T23:39:50.361Z,2.78
2022-10-06T23:42:16.938Z,2.60
2022-10-06T23:44:43.494Z,3.03
2022-10-06T23:47:09.985Z,3.00
2022-10-06T23:49:36.461Z,2.40
2022-10-06T23:52:04.274Z,2.38
2022-10-06T23:54:30.749Z,2.55
2022-10-06T23:56:57.211Z,2.47
2022-10-06T23:59:23.697Z,2.90
